createdAt,value
2017-04-12T00:00:05.587Z,19.7
2017-04-12T00:02:05.274Z,19.7
2017-04-12T00:04:05.752Z,19.7
2017-04-12T00:06:05.884Z,19.7
2017-04-12T00:08:05.627Z,19.6
2017-04-12T00:10:04.874Z,19.7
2017-04-12T00:12:05.890Z,19.6
2017-04-12T00:14:08.131Z,19.7
2017-04-12T00:16:07.356Z,19.7
2017-04-12T00:18:05.395Z,19.6
2017-04-12T00:20:04.992Z,19.7
2017-04-12T00:22:04.693Z,19.6
2017-04-12T00:24:05.744Z,19.7
2017-04-12T00:26:05.412Z,19.7
2017-04-12T00:28:05.124Z,19.7
2017-04-12T00:30:05.130Z,19.7
2017-04-12T00:32:05.369Z,19.7
2017-04-12T00:34:04.688Z,19.6
2017-04-12T00:36:05.697Z,19.7
2017-04-12T00:38:05.398Z,19.7
2017-04-12T00:40:05.063Z,19.7
2017-04-12T00:42:05.666Z,19.7
2017-04-12T00:44:07.429Z,19.7
2017-04-12T00:46:04.642Z,19.7
2017-04-12T00:48:05.493Z,19.7
2017-04-12T00:50:04.785Z,19.7
2017-04-12T00:52:05.736Z,19.6
2017-04-12T00:54:06.645Z,19.7
2017-04-12T00:56:05.374Z,19.7
2017-04-12T00:58:07.624Z,19.6
2017-04-12T01:00:09.198Z,19.7
2017-04-12T01:02:04.874Z,19.6
2017-04-12T01:04:04.683Z,19.6
2017-04-12T01:06:05.590Z,19.7
2017-04-12T01:08:05.485Z,19.6
2017-04-12T01:10:04.731Z,19.6
2017-04-12T01:12:06.494Z,19.7
2017-04-12T01:14:05.172Z,19.6
2017-04-12T01:16:11.110Z,19.6
2017-04-12T01:18:05.897Z,19.7
2017-04-12T01:20:04.642Z,19.7
2017-04-12T01:22:05.345Z,19.7
2017-04-12T01:24:05.397Z,19.7
2017-04-12T01:26:05.608Z,19.7
2017-04-12T01:28:05.293Z,19.6
2017-04-12T01:30:11.309Z,19.6
2017-04-12T01:32:07.990Z,19.6
2017-04-12T01:34:04.705Z,19.6
2017-04-12T01:36:05.971Z,19.6
2017-04-12T01:38:07.247Z,19.6
2017-04-12T01:40:05.864Z,19.6
2017-04-12T01:42:05.397Z,19.6
2017-04-12T01:44:05.067Z,19.6
2017-04-12T01:46:05.315Z,19.6
2017-04-12T01:48:05.302Z,19.6
2017-04-12T01:50:05.108Z,19.7
2017-04-12T01:52:07.399Z,19.6
2017-04-12T01:54:05.257Z,19.6
2017-04-12T01:56:07.809Z,19.6
2017-04-12T01:58:08.029Z,19.6
2017-04-12T02:00:04.866Z,19.6
2017-04-12T02:02:08.169Z,19.6
2017-04-12T02:04:05.416Z,19.6
2017-04-12T02:06:05.439Z,19.6
2017-04-12T02:08:05.182Z,19.7
2017-04-12T02:10:07.424Z,19.7
2017-04-12T02:12:05.523Z,19.6
2017-04-12T02:14:05.192Z,19.6
2017-04-12T02:16:04.948Z,19.6
2017-04-12T02:18:05.776Z,19.7
2017-04-12T02:20:08.038Z,19.7
2017-04-12T02:22:04.731Z,19.6
2017-04-12T02:24:05.794Z,19.6
2017-04-12T02:26:05.592Z,19.6
2017-04-12T02:28:05.725Z,19.6
2017-04-12T02:30:05.588Z,19.6
2017-04-12T02:32:05.308Z,19.6
2017-04-12T02:34:05.061Z,19.6
2017-04-12T02:36:05.097Z,19.6
2017-04-12T02:38:04.836Z,19.6
2017-04-12T02:40:05.571Z,19.6
2017-04-12T02:42:05.664Z,19.6
2017-04-12T02:44:05.637Z,19.6
2017-04-12T02:46:05.381Z,19.6
2017-04-12T02:48:05.954Z,19.6
2017-04-12T02:50:04.617Z,19.6
2017-04-12T02:52:05.279Z,19.6
2017-04-12T02:54:05.210Z,19.6
2017-04-12T02:56:04.889Z,19.6
2017-04-12T02:58:05.571Z,19.6
2017-04-12T03:00:05.106Z,19.6
2017-04-12T03:02:04.790Z,19.6
2017-04-12T03:04:05.479Z,19.6
2017-04-12T03:06:05.288Z,19.6
2017-04-12T03:08:05.089Z,19.7
2017-04-12T03:10:04.755Z,19.6
2017-04-12T03:12:05.817Z,19.6
2017-04-12T03:14:05.490Z,19.6
2017-04-12T03:16:05.491Z,19.6
2017-04-12T03:18:05.596Z,19.6
2017-04-12T03:20:05.407Z,19.6
2017-04-12T03:22:05.109Z,19.6
2017-04-12T03:24:05.467Z,19.6
2017-04-12T03:26:05.172Z,19.6
2017-04-12T03:28:05.450Z,19.6
2017-04-12T03:30:05.295Z,19.6
2017-04-12T03:32:05.321Z,19.6
2017-04-12T03:34:05.021Z,19.6
2017-04-12T03:36:05.649Z,19.6
2017-04-12T03:38:05.313Z,19.6
2017-04-12T03:40:05.015Z,19.6
2017-04-12T03:42:05.114Z,19.6
2017-04-12T03:44:04.815Z,19.6
2017-04-12T03:46:05.520Z,19.6
2017-04-12T03:48:05.536Z,19.6
2017-04-12T03:50:05.282Z,19.6
2017-04-12T03:52:05.000Z,19.6
2017-04-12T03:54:05.221Z,19.6
2017-04-12T03:56:04.931Z,19.6
2017-04-12T03:58:04.686Z,19.6
2017-04-12T04:00:08.413Z,19.6
2017-04-12T04:02:05.085Z,19.6
2017-04-12T04:04:05.151Z,19.6
2017-04-12T04:06:05.161Z,19.6
2017-04-12T04:08:07.924Z,19.6
2017-04-12T04:10:05.611Z,19.6
2017-04-12T04:12:05.460Z,19.6
2017-04-12T04:14:05.197Z,19.6
2017-04-12T04:16:04.877Z,19.6
2017-04-12T04:18:07.526Z,19.6
2017-04-12T04:20:05.486Z,19.6
2017-04-12T04:22:05.210Z,19.6
2017-04-12T04:24:05.244Z,19.6
2017-04-12T04:26:05.024Z,19.6
2017-04-12T04:28:11.038Z,19.6
2017-04-12T04:30:08.217Z,19.6
2017-04-12T04:32:07.474Z,19.6
2017-04-12T04:34:05.167Z,19.6
2017-04-12T04:36:05.154Z,19.6
2017-04-12T04:38:04.942Z,19.6
2017-04-12T04:40:04.634Z,19.6
2017-04-12T04:42:05.663Z,19.6
2017-04-12T04:44:05.440Z,19.6
2017-04-12T04:46:05.207Z,19.6
2017-04-12T04:48:05.183Z,19.6
2017-04-12T04:50:07.423Z,19.6
2017-04-12T04:52:12.848Z,19.6
2017-04-12T04:54:05.342Z,19.6
2017-04-12T04:56:05.027Z,19.6
2017-04-12T04:58:05.528Z,19.6
2017-04-12T05:00:05.286Z,19.6
2017-04-12T05:02:05.004Z,19.6
2017-04-12T05:04:04.713Z,19.6
2017-04-12T05:06:05.263Z,19.6
2017-04-12T05:08:05.325Z,19.6
2017-04-12T05:10:05.060Z,19.6
2017-04-12T05:12:04.971Z,19.6
2017-04-12T05:14:04.696Z,19.6
2017-04-12T05:16:05.366Z,19.6
2017-04-12T05:18:05.424Z,19.6
2017-04-12T05:20:05.128Z,19.6
2017-04-12T05:22:04.869Z,19.6
2017-04-12T05:24:07.358Z,19.6
2017-04-12T05:26:05.089Z,19.6
2017-04-12T05:28:07.317Z,19.6
2017-04-12T05:30:05.203Z,19.6
2017-04-12T05:32:04.995Z,19.6
2017-04-12T05:34:04.703Z,19.6
2017-04-12T05:36:05.661Z,19.6
2017-04-12T05:38:05.442Z,19.6
2017-04-12T05:40:08.077Z,19.6
2017-04-12T05:42:12.568Z,19.6
2017-04-12T05:44:05.267Z,19.6
2017-04-12T05:46:05.619Z,19.6
2017-04-12T05:48:08.214Z,19.6
2017-04-12T05:50:04.913Z,19.6
2017-04-12T05:52:08.134Z,19.6
2017-04-12T05:54:07.561Z,19.6
2017-04-12T05:56:05.112Z,19.6
2017-04-12T05:58:07.340Z,19.6
2017-04-12T06:00:05.256Z,19.6
2017-04-12T06:02:05.491Z,19.6
2017-04-12T06:04:05.259Z,19.6
2017-04-12T06:06:05.218Z,19.6
2017-04-12T06:08:07.474Z,19.6
2017-04-12T06:10:05.205Z,19.6
2017-04-12T06:12:07.788Z,19.6
2017-04-12T06:14:05.571Z,19.6
2017-04-12T06:16:04.828Z,19.6
2017-04-12T06:18:07.557Z,19.6
2017-04-12T06:20:05.211Z,19.6
2017-04-12T06:22:04.919Z,19.6
2017-04-12T06:24:06.042Z,19.6
2017-04-12T06:26:07.469Z,19.6
2017-04-12T06:28:18.164Z,19.6
2017-04-12T06:30:05.906Z,19.6
2017-04-12T06:32:04.776Z,19.6
2017-04-12T06:34:05.624Z,19.6
2017-04-12T06:36:05.065Z,19.6
2017-04-12T06:38:05.560Z,19.7
2017-04-12T06:40:05.503Z,19.7
2017-04-12T06:42:05.346Z,19.7
2017-04-12T06:44:10.517Z,19.7
2017-04-12T06:46:04.715Z,19.7
2017-04-12T06:48:05.698Z,19.7
2017-04-12T06:50:13.056Z,19.7
2017-04-12T06:52:04.791Z,19.7
2017-04-12T06:54:05.795Z,19.7
2017-04-12T06:56:05.554Z,19.8
2017-04-12T06:58:07.495Z,19.8
2017-04-12T07:00:05.463Z,19.8
2017-04-12T07:02:05.187Z,19.8
2017-04-12T07:04:07.421Z,19.8
2017-04-12T07:06:05.420Z,19.8
2017-04-12T07:08:05.227Z,19.8
2017-04-12T07:10:05.432Z,19.8
2017-04-12T07:12:07.490Z,19.8
2017-04-12T07:14:07.357Z,19.8
2017-04-12T07:16:06.090Z,19.8
2017-04-12T07:18:10.379Z,19.9
2017-04-12T07:20:04.875Z,19.9
2017-04-12T07:22:13.204Z,20
2017-04-12T07:24:09.911Z,20
2017-04-12T07:26:05.320Z,20
2017-04-12T07:28:05.521Z,20.1
2017-04-12T07:30:08.093Z,20.2
2017-04-12T07:32:05.536Z,20.2
2017-04-12T07:34:05.250Z,20.2
2017-04-12T07:36:05.629Z,20.2
2017-04-12T07:38:05.571Z,20.3
2017-04-12T07:40:10.334Z,20.4
2017-04-12T07:42:05.520Z,20.3
2017-04-12T07:44:05.304Z,20.3
2017-04-12T07:46:05.035Z,20.3
2017-04-12T07:48:04.972Z,20.3
2017-04-12T07:50:07.212Z,20.3
2017-04-12T07:52:07.417Z,20.4
2017-04-12T07:54:05.497Z,20.3
2017-04-12T07:56:05.230Z,20.4
2017-04-12T07:58:05.003Z,20.4
2017-04-12T08:00:05.086Z,20.4
2017-04-12T08:02:04.802Z,20.5
2017-04-12T08:04:08.347Z,20.6
2017-04-12T08:06:07.874Z,20.6
2017-04-12T08:08:05.521Z,20.5
2017-04-12T08:10:05.252Z,20.6
2017-04-12T08:12:05.282Z,20.7
2017-04-12T08:14:05.502Z,20.7
2017-04-12T08:16:05.193Z,20.7
2017-04-12T08:18:08.163Z,20.8
2017-04-12T08:20:05.714Z,20.7
2017-04-12T08:22:05.389Z,20.7
2017-04-12T08:24:05.211Z,20.8
2017-04-12T08:26:05.135Z,20.8
2017-04-12T08:28:10.679Z,20.8
2017-04-12T08:30:06.506Z,20.8
2017-04-12T08:32:07.832Z,20.9
2017-04-12T08:34:05.513Z,20.9
2017-04-12T08:36:05.784Z,20.9
2017-04-12T08:38:05.540Z,21
2017-04-12T08:40:05.350Z,21
2017-04-12T08:42:05.728Z,21
2017-04-12T08:44:05.360Z,21
2017-04-12T08:46:05.084Z,21
2017-04-12T08:48:08.095Z,21
2017-04-12T08:50:05.072Z,21
2017-04-12T08:52:07.815Z,21
2017-04-12T08:54:05.677Z,21
2017-04-12T08:56:05.391Z,21
2017-04-12T08:58:05.074Z,21
2017-04-12T09:00:05.300Z,21
2017-04-12T09:02:05.531Z,21
2017-04-12T09:04:05.402Z,21
2017-04-12T09:06:05.318Z,20.9
2017-04-12T09:08:05.339Z,21
2017-04-12T09:10:05.042Z,20.9
2017-04-12T09:12:04.891Z,21
2017-04-12T09:14:05.905Z,21
2017-04-12T09:16:05.923Z,21
2017-04-12T09:18:07.751Z,21.1
2017-04-12T09:20:08.071Z,21.1
2017-04-12T09:22:04.884Z,21.1
2017-04-12T09:24:10.413Z,21.2
2017-04-12T09:26:05.081Z,21.2
2017-04-12T09:28:04.739Z,21.3
2017-04-12T09:30:08.130Z,21.3
2017-04-12T09:32:07.631Z,21.3
2017-04-12T09:34:04.839Z,21.3
2017-04-12T09:36:10.760Z,21.2
2017-04-12T09:38:07.165Z,21.2
2017-04-12T09:40:07.823Z,21.1
2017-04-12T09:42:05.679Z,21.1
2017-04-12T09:44:05.326Z,21.1
2017-04-12T09:46:05.036Z,21.1
2017-04-12T09:48:07.870Z,21.1
2017-04-12T09:50:15.114Z,21
2017-04-12T09:52:09.857Z,21
2017-04-12T09:54:05.713Z,21
2017-04-12T09:56:05.848Z,21
2017-04-12T09:58:05.561Z,21
2017-04-12T10:00:05.989Z,20.9
2017-04-12T10:02:07.205Z,20.9
2017-04-12T10:04:05.099Z,20.9
2017-04-12T10:06:05.274Z,20.9
2017-04-12T10:08:04.984Z,20.9
2017-04-12T10:10:04.657Z,20.9
2017-04-12T10:12:05.246Z,20.9
2017-04-12T10:14:04.931Z,20.9
2017-04-12T10:16:04.648Z,20.8
2017-04-12T10:18:05.372Z,20.9
2017-04-12T10:20:05.297Z,20.8
2017-04-12T10:22:05.078Z,20.8
2017-04-12T10:24:05.754Z,20.8
2017-04-12T10:26:05.458Z,20.8
2017-04-12T10:28:08.082Z,20.8
2017-04-12T10:30:05.257Z,20.8
2017-04-12T10:32:04.959Z,20.8
2017-04-12T10:34:09.773Z,20.7
2017-04-12T10:36:10.690Z,20.8
2017-04-12T10:38:10.462Z,20.8
2017-04-12T10:40:05.197Z,20.7
2017-04-12T10:42:05.707Z,20.8
2017-04-12T10:44:05.549Z,20.7
2017-04-12T10:46:05.226Z,20.7
2017-04-12T10:48:05.204Z,20.7
2017-04-12T10:50:04.919Z,20.7
2017-04-12T10:52:04.645Z,20.7
2017-04-12T10:54:05.781Z,20.7
2017-04-12T10:56:05.534Z,20.7
2017-04-12T10:58:10.425Z,20.7
2017-04-12T11:00:04.874Z,20.7
2017-04-12T11:02:05.560Z,20.7
2017-04-12T11:04:05.312Z,20.7
2017-04-12T11:06:05.341Z,20.7
2017-04-12T11:08:04.868Z,20.7
2017-04-12T11:10:05.575Z,20.7
2017-04-12T11:12:05.653Z,20.7
2017-04-12T11:14:05.511Z,20.6
2017-04-12T11:16:05.307Z,20.7
2017-04-12T11:18:05.431Z,20.7
2017-04-12T11:20:05.615Z,20.7
2017-04-12T11:22:04.846Z,20.7
2017-04-12T11:24:05.716Z,20.7
2017-04-12T11:26:05.882Z,20.7
2017-04-12T11:28:04.800Z,20.8
2017-04-12T11:30:09.264Z,20.7
2017-04-12T11:32:13.112Z,20.7
2017-04-12T11:34:07.761Z,20.7
2017-04-12T11:36:10.881Z,20.7
2017-04-12T11:38:05.626Z,20.7
2017-04-12T11:40:06.601Z,20.7
2017-04-12T11:42:07.563Z,20.7
2017-04-12T11:44:05.231Z,20.7
2017-04-12T11:46:07.301Z,20.7
2017-04-12T11:48:10.810Z,20.7
2017-04-12T11:50:06.033Z,20.7
2017-04-12T11:52:04.801Z,20.7
2017-04-12T11:54:05.879Z,20.7
2017-04-12T11:56:05.244Z,20.7
2017-04-12T11:58:36.247Z,20.7
2017-04-12T12:00:05.804Z,20.7
2017-04-12T12:02:07.531Z,20.7
2017-04-12T12:04:05.638Z,20.7
2017-04-12T12:06:05.242Z,20.7
2017-04-12T12:08:05.185Z,20.7
2017-04-12T12:10:06.556Z,20.7
2017-04-12T12:12:07.891Z,20.7
2017-04-12T12:14:04.795Z,20.7
2017-04-12T12:16:10.547Z,20.7
2017-04-12T12:18:05.251Z,20.7
2017-04-12T12:20:07.663Z,20.7
2017-04-12T12:22:05.989Z,20.7
2017-04-12T12:24:05.069Z,20.7
2017-04-12T12:26:17.609Z,20.7
2017-04-12T12:28:05.311Z,20.7
2017-04-12T12:30:06.197Z,20.7
2017-04-12T12:32:05.617Z,20.7
2017-04-12T12:34:04.777Z,20.7
2017-04-12T12:36:05.679Z,20.7
2017-04-12T12:38:09.880Z,20.7
2017-04-12T12:40:05.658Z,20.7
2017-04-12T12:42:06.027Z,20.7
2017-04-12T12:44:09.779Z,20.7
2017-04-12T12:46:04.962Z,20.7
2017-04-12T12:48:07.947Z,20.7
2017-04-12T12:50:05.457Z,20.7
2017-04-12T12:52:05.943Z,20.7
2017-04-12T12:54:04.841Z,20.7
2017-04-12T12:56:05.071Z,20.7
2017-04-12T12:58:05.300Z,20.7
2017-04-12T13:00:08.385Z,20.7
2017-04-12T13:02:05.494Z,20.7
2017-04-12T13:04:04.903Z,20.7
2017-04-12T13:06:13.045Z,20.7
2017-04-12T13:08:20.471Z,20.7
2017-04-12T13:10:05.742Z,20.7
2017-04-12T13:12:07.934Z,20.7
2017-04-12T13:14:10.371Z,20.7
2017-04-12T13:16:05.339Z,20.7
2017-04-12T13:18:06.456Z,20.7
2017-04-12T13:20:05.177Z,20.7
2017-04-12T13:22:05.100Z,20.7
2017-04-12T13:24:05.078Z,20.7
2017-04-12T13:26:04.837Z,20.7
2017-04-12T13:28:05.120Z,20.7
2017-04-12T13:30:05.509Z,20.7
2017-04-12T13:32:05.198Z,20.7
2017-04-12T13:34:05.539Z,20.7
2017-04-12T13:36:08.117Z,20.7
2017-04-12T13:38:05.324Z,20.7
2017-04-12T13:40:08.003Z,20.7
2017-04-12T13:42:05.004Z,20.6
2017-04-12T13:44:04.952Z,20.6
2017-04-12T13:46:05.298Z,20.7
2017-04-12T13:48:06.567Z,20.7
2017-04-12T13:50:04.799Z,20.6
2017-04-12T13:52:05.458Z,20.6
2017-04-12T13:54:10.621Z,20.6
2017-04-12T13:56:05.194Z,20.7
2017-04-12T13:58:04.947Z,20.6
2017-04-12T14:00:07.530Z,20.6
2017-04-12T14:02:04.748Z,20.6
2017-04-12T14:04:05.479Z,20.6
2017-04-12T14:06:05.931Z,20.6
2017-04-12T14:08:05.220Z,20.6
2017-04-12T14:10:04.912Z,20.6
2017-04-12T14:12:05.327Z,20.6
2017-04-12T14:14:05.501Z,20.6
2017-04-12T14:16:05.179Z,20.6
2017-04-12T14:18:08.608Z,20.6
2017-04-12T14:20:05.252Z,20.6
2017-04-12T14:22:04.979Z,20.6
2017-04-12T14:24:07.523Z,20.6
2017-04-12T14:26:05.234Z,20.6
2017-04-12T14:28:05.701Z,20.6
2017-04-12T14:30:05.443Z,20.6
2017-04-12T14:32:08.191Z,20.6
2017-04-12T14:34:10.657Z,20.6
2017-04-12T14:36:05.087Z,20.6
2017-04-12T14:38:07.273Z,20.6
2017-04-12T14:40:09.425Z,20.6
2017-04-12T14:42:05.237Z,20.6
2017-04-12T14:44:12.379Z,20.6
2017-04-12T14:46:05.060Z,20.6
2017-04-12T14:48:12.669Z,20.6
2017-04-12T14:50:05.893Z,20.6
2017-04-12T14:52:14.889Z,20.6
2017-04-12T14:54:08.738Z,20.6
2017-04-12T14:56:05.763Z,20.6
2017-04-12T14:58:05.544Z,20.6
2017-04-12T15:00:08.499Z,20.6
2017-04-12T15:02:05.908Z,20.6
2017-04-12T15:04:05.558Z,20.6
2017-04-12T15:06:11.114Z,20.6
2017-04-12T15:08:07.797Z,20.6
2017-04-12T15:10:12.973Z,20.6
2017-04-12T15:12:10.762Z,20.6
2017-04-12T15:14:08.780Z,20.6
2017-04-12T15:16:06.278Z,20.6
2017-04-12T15:18:14.749Z,20.6
2017-04-12T15:20:05.021Z,20.6
2017-04-12T15:22:07.443Z,20.6
2017-04-12T15:24:07.910Z,20.6
2017-04-12T15:26:06.837Z,20.6
2017-04-12T15:28:05.811Z,20.5
2017-04-12T15:30:12.533Z,20.6
2017-04-12T15:32:05.502Z,20.6
2017-04-12T15:34:04.958Z,20.6
2017-04-12T15:36:05.147Z,20.6
2017-04-12T15:38:07.672Z,20.6
2017-04-12T15:40:04.782Z,20.6
2017-04-12T15:42:05.410Z,20.6
2017-04-12T15:44:08.070Z,20.5
2017-04-12T15:46:05.775Z,20.5
2017-04-12T15:48:05.895Z,20.5
2017-04-12T15:50:07.220Z,20.5
2017-04-12T15:52:07.518Z,20.6
2017-04-12T15:54:05.669Z,20.6
2017-04-12T15:56:05.458Z,20.5
2017-04-12T15:58:05.313Z,20.6
2017-04-12T16:00:05.838Z,20.5
2017-04-12T16:02:04.928Z,20.5
2017-04-12T16:04:05.076Z,20.5
2017-04-12T16:06:05.463Z,20.5
2017-04-12T16:08:06.789Z,20.5
2017-04-12T16:10:08.066Z,20.5
2017-04-12T16:12:05.834Z,20.5
2017-04-12T16:14:05.194Z,20.5
2017-04-12T16:16:07.688Z,20.5
2017-04-12T16:18:12.423Z,20.5
2017-04-12T16:20:09.501Z,20.4
2017-04-12T16:22:04.656Z,20.4
2017-04-12T16:24:06.398Z,20.4
2017-04-12T16:26:05.086Z,20.4
2017-04-12T16:28:04.903Z,20.4
2017-04-12T16:30:05.592Z,20.4
2017-04-12T16:32:05.458Z,20.4
2017-04-12T16:34:07.704Z,20.4
2017-04-12T16:36:13.251Z,20.4
2017-04-12T16:38:08.451Z,20.4
2017-04-12T16:40:04.953Z,20.4
2017-04-12T16:42:05.456Z,20.4
2017-04-12T16:44:04.782Z,20.4
2017-04-12T16:46:05.009Z,20.4
2017-04-12T16:48:07.422Z,20.4
2017-04-12T16:50:05.152Z,20.4
2017-04-12T16:52:05.746Z,20.4
2017-04-12T16:54:05.298Z,20.4
2017-04-12T16:56:05.178Z,20.4
2017-04-12T16:58:04.890Z,20.4
2017-04-12T17:00:04.883Z,20.4
2017-04-12T17:02:05.116Z,20.4
2017-04-12T17:04:04.986Z,20.4
2017-04-12T17:06:05.122Z,20.4
2017-04-12T17:08:06.569Z,20.4
2017-04-12T17:10:05.210Z,20.4
2017-04-12T17:12:08.623Z,20.4
2017-04-12T17:14:08.098Z,20.4
2017-04-12T17:16:04.806Z,20.4
2017-04-12T17:18:04.945Z,20.5
2017-04-12T17:20:07.185Z,20.5
2017-04-12T17:22:05.017Z,20.5
2017-04-12T17:24:05.597Z,20.5
2017-04-12T17:26:05.498Z,20.5
2017-04-12T17:28:05.461Z,20.5
2017-04-12T17:30:05.270Z,20.5
2017-04-12T17:32:10.068Z,20.6
2017-04-12T17:34:07.350Z,20.6
2017-04-12T17:36:08.074Z,20.6
2017-04-12T17:38:04.858Z,20.6
2017-04-12T17:40:05.964Z,20.6
2017-04-12T17:42:04.978Z,20.6
2017-04-12T17:44:04.633Z,20.6
2017-04-12T17:46:17.516Z,20.6
2017-04-12T17:48:09.587Z,20.7
2017-04-12T17:50:04.979Z,20.6
2017-04-12T17:52:05.380Z,20.7
2017-04-12T17:54:05.757Z,20.6
2017-04-12T17:56:08.249Z,20.7
2017-04-12T17:58:07.426Z,20.7
2017-04-12T18:00:04.790Z,20.6
2017-04-12T18:02:13.071Z,20.6
2017-04-12T18:04:04.790Z,20.6
2017-04-12T18:06:05.762Z,20.6
2017-04-12T18:08:08.046Z,20.6
2017-04-12T18:10:04.728Z,20.6
2017-04-12T18:12:10.825Z,20.6
2017-04-12T18:14:04.810Z,20.6
2017-04-12T18:16:07.991Z,20.6
2017-04-12T18:18:05.213Z,20.6
2017-04-12T18:20:04.890Z,20.6
2017-04-12T18:22:04.836Z,20.6
2017-04-12T18:24:08.416Z,20.6
2017-04-12T18:26:05.279Z,20.6
2017-04-12T18:28:04.911Z,20.6
2017-04-12T18:30:05.772Z,20.6
2017-04-12T18:32:04.684Z,20.5
2017-04-12T18:34:05.392Z,20.6
2017-04-12T18:36:06.224Z,20.5
2017-04-12T18:38:04.988Z,20.5
2017-04-12T18:40:04.880Z,20.5
2017-04-12T18:42:04.923Z,20.5
2017-04-12T18:44:05.741Z,20.5
2017-04-12T18:46:10.473Z,20.5
2017-04-12T18:48:05.522Z,20.5
2017-04-12T18:50:05.207Z,20.5
2017-04-12T18:52:07.384Z,20.5
2017-04-12T18:54:05.231Z,20.5
2017-04-12T18:56:04.960Z,20.5
2017-04-12T18:58:12.232Z,20.5
2017-04-12T19:00:06.089Z,20.5
2017-04-12T19:02:05.085Z,20.4
2017-04-12T19:04:05.313Z,20.5
2017-04-12T19:06:06.243Z,20.4
2017-04-12T19:08:05.614Z,20.4
2017-04-12T19:10:08.478Z,20.4
2017-04-12T19:12:05.192Z,20.4
2017-04-12T19:14:06.798Z,20.4
2017-04-12T19:16:08.089Z,20.4
2017-04-12T19:18:05.603Z,20.4
2017-04-12T19:20:12.023Z,20.4
2017-04-12T19:22:07.037Z,20.4
2017-04-12T19:24:05.422Z,20.4
2017-04-12T19:26:05.025Z,20.4
2017-04-12T19:28:10.981Z,20.4
2017-04-12T19:30:10.274Z,20.4
2017-04-12T19:32:05.693Z,20.4
2017-04-12T19:34:05.539Z,20.4
2017-04-12T19:36:05.152Z,20.4
2017-04-12T19:38:04.886Z,20.4
2017-04-12T19:40:05.240Z,20.4
2017-04-12T19:42:06.405Z,20.4
2017-04-12T19:44:08.803Z,20.4
2017-04-12T19:46:15.356Z,20.4
2017-04-12T19:48:12.542Z,20.4
2017-04-12T19:50:05.109Z,20.4
2017-04-12T19:56:08.211Z,20.3
2017-04-12T19:58:05.043Z,20.4
2017-04-12T20:00:05.179Z,20.3
2017-04-12T20:02:06.576Z,20.3
2017-04-12T20:04:10.175Z,20.3
2017-04-12T20:06:05.465Z,20.3
2017-04-12T20:08:05.422Z,20.3
2017-04-12T20:10:07.771Z,20.3
2017-04-12T20:12:05.509Z,20.3
2017-04-12T20:14:04.931Z,20.3
2017-04-12T20:16:08.371Z,20.3
2017-04-12T20:18:05.510Z,20.3
2017-04-12T20:20:05.367Z,20.3
2017-04-12T20:22:08.032Z,20.3
2017-04-12T20:24:04.746Z,20.3
2017-04-12T20:26:05.198Z,20.3
2017-04-12T20:28:07.676Z,20.3
2017-04-12T20:30:10.057Z,20.3
2017-04-12T20:32:06.435Z,20.3
2017-04-12T20:34:05.177Z,20.3
2017-04-12T20:36:08.287Z,20.3
2017-04-12T20:38:05.175Z,20.3
2017-04-12T20:40:07.848Z,20.3
2017-04-12T20:42:04.745Z,20.3
2017-04-12T20:44:09.713Z,20.3
2017-04-12T20:46:10.503Z,20.3
2017-04-12T20:48:05.293Z,20.3
2017-04-12T20:50:07.958Z,20.3
2017-04-12T20:52:07.491Z,20.3
2017-04-12T20:54:05.165Z,20.2
2017-04-12T20:56:05.801Z,20.3
2017-04-12T20:58:09.785Z,20.2
2017-04-12T21:00:05.513Z,20.2
2017-04-12T21:02:08.107Z,20.2
2017-04-12T21:04:05.351Z,20.2
2017-04-12T21:06:05.235Z,20.2
2017-04-12T21:08:05.041Z,20.2
2017-04-12T21:10:04.750Z,20.2
2017-04-12T21:12:06.474Z,20.2
2017-04-12T21:14:15.259Z,20.2
2017-04-12T21:16:04.990Z,20.2
2017-04-12T21:18:04.805Z,20.2
2017-04-12T21:20:06.454Z,20.2
2017-04-12T21:22:05.435Z,20.2
2017-04-12T21:24:07.928Z,20.2
2017-04-12T21:26:05.991Z,20.2
2017-04-12T21:28:04.746Z,20.2
2017-04-12T21:30:05.487Z,20.2
2017-04-12T21:32:05.548Z,20.2
2017-04-12T21:34:05.412Z,20.2
2017-04-12T21:36:05.107Z,20.2
2017-04-12T21:38:10.401Z,20.2
2017-04-12T21:40:04.772Z,20.2
2017-04-12T21:42:04.967Z,20.2
2017-04-12T21:44:04.779Z,20.2
2017-04-12T21:46:10.078Z,20.1
2017-04-12T21:48:07.501Z,20.2
2017-04-12T21:50:06.195Z,20.2
2017-04-12T21:52:04.937Z,20.2
2017-04-12T21:54:04.699Z,20.2
2017-04-12T21:56:05.756Z,20.2
2017-04-12T21:58:07.998Z,20.2
2017-04-12T22:00:04.718Z,20.2
2017-04-12T22:02:05.824Z,20.2
2017-04-12T22:04:05.469Z,20.2
2017-04-12T22:06:05.188Z,20.2
2017-04-12T22:08:05.053Z,20.2
2017-04-12T22:10:04.713Z,20.2
2017-04-12T22:12:05.819Z,20.2
2017-04-12T22:14:04.895Z,20.2
2017-04-12T22:16:05.573Z,20.1
2017-04-12T22:18:10.518Z,20.1
2017-04-12T22:20:06.160Z,20.1
2017-04-12T22:22:04.874Z,20.2
2017-04-12T22:24:05.582Z,20.1
2017-04-12T22:26:05.420Z,20.1
2017-04-12T22:28:13.013Z,20.1
2017-04-12T22:30:05.695Z,20.1
2017-04-12T22:32:10.804Z,20.1
2017-04-12T22:34:05.549Z,20.1
2017-04-12T22:36:05.298Z,20.1
2017-04-12T22:38:07.076Z,20.1
2017-04-12T22:40:05.023Z,20.1
2017-04-12T22:42:04.693Z,20.1
2017-04-12T22:44:05.571Z,20.1
2017-04-12T22:46:05.491Z,20.1
2017-04-12T22:48:04.723Z,20.1
2017-04-12T22:50:05.083Z,20.1
2017-04-12T22:52:04.911Z,20.1
2017-04-12T22:54:05.161Z,20.1
2017-04-12T22:56:05.132Z,20.1
2017-04-12T22:58:04.859Z,20.1
2017-04-12T23:00:05.852Z,20.1
2017-04-12T23:02:07.870Z,20.1
2017-04-12T23:04:05.603Z,20.1
2017-04-12T23:06:10.412Z,20.1
2017-04-12T23:08:06.514Z,20.1
2017-04-12T23:10:05.200Z,20.1
2017-04-12T23:12:05.089Z,20.1
2017-04-12T23:14:05.098Z,20.1
2017-04-12T23:16:05.291Z,20.1
2017-04-12T23:18:05.187Z,20.1
2017-04-12T23:20:05.209Z,20.1
2017-04-12T23:22:04.856Z,20.1
2017-04-12T23:24:08.130Z,20.1
2017-04-12T23:26:05.884Z,20.1
2017-04-12T23:28:05.557Z,20.1
2017-04-12T23:30:05.264Z,20.1
2017-04-12T23:32:05.372Z,20.1
2017-04-12T23:34:05.578Z,20.1
2017-04-12T23:36:05.316Z,20.1
2017-04-12T23:38:05.136Z,20.1
2017-04-12T23:40:05.332Z,20.1
2017-04-12T23:42:05.022Z,20.1
2017-04-12T23:44:05.061Z,20.1
2017-04-12T23:46:12.348Z,20.1
2017-04-12T23:48:05.271Z,20.1
2017-04-12T23:50:05.839Z,20.1
2017-04-12T23:52:08.042Z,20.1
2017-04-12T23:54:04.824Z,20.1
2017-04-12T23:56:05.640Z,20.1
2017-04-12T23:58:05.325Z,20.1
